sensor_id;sensor_type;location;lat;lon;timestamp;P1;durP1;ratioP1;P2;durP2;ratioP2
7181;SDS011;3632;42.724;23.298;2024-01-10T00:00:01;4.60;;;3.17;;
7181;SDS011;3632;42.724;23.298;2024-01-10T00:02:29;4.17;;;3.10;;
7181;SDS011;3632;42.724;23.298;2024-01-10T00:04:56;3.90;;;2.87;;
7181;SDS011;3632;42.724;23.298;2024-01-10T00:07:24;5.17;;;3.20;;
7181;SDS011;3632;42.724;23.298;2024-01-10T00:09:50;6.50;;;2.97;;
7181;SDS011;3632;42.724;23.298;2024-01-10T00:12:17;6.67;;;3.23;;
7181;SDS011;3632;42.724;23.298;2024-01-10T00:14:44;5.17;;;3.27;;
7181;SDS011;3632;42.724;23.298;2024-01-10T00:17:11;4.43;;;3.23;;
7181;SDS011;3632;42.724;23.298;2024-01-10T00:19:38;3.77;;;2.90;;
7181;SDS011;3632;42.724;23.298;2024-01-10T00:22:05;3.97;;;2.70;;
7181;SDS011;3632;42.724;23.298;2024-01-10T00:24:33;5.50;;;3.10;;
7181;SDS011;3632;42.724;23.298;2024-01-10T00:26:59;3.90;;;2.90;;
7181;SDS011;3632;42.724;23.298;2024-01-10T00:29:26;4.20;;;3.00;;
7181;SDS011;3632;42.724;23.298;2024-01-10T00:31:53;3.93;;;2.90;;
7181;SDS011;3632;42.724;23.298;2024-01-10T00:34:24;3.70;;;2.90;;
7181;SDS011;3632;42.724;23.298;2024-01-10T00:36:51;3.90;;;2.73;;
7181;SDS011;3632;42.724;23.298;2024-01-10T00:39:18;3.27;;;2.87;;
7181;SDS011;3632;42.724;23.298;2024-01-10T00:41:46;4.37;;;3.03;;
7181;SDS011;3632;42.724;23.298;2024-01-10T00:44:13;3.43;;;2.67;;
7181;SDS011;3632;42.724;23.298;2024-01-10T00:46:40;3.33;;;2.37;;
7181;SDS011;3632;42.724;23.298;2024-01-10T00:49:07;5.77;;;2.93;;
7181;SDS011;3632;42.724;23.298;2024-01-10T00:51:33;5.20;;;2.70;;
7181;SDS011;3632;42.724;23.298;2024-01-10T00:54:00;4.03;;;2.80;;
7181;SDS011;3632;42.724;23.298;2024-01-10T00:56:27;3.13;;;2.73;;
7181;SDS011;3632;42.724;23.298;2024-01-10T00:58:55;3.73;;;2.80;;
7181;SDS011;3632;42.724;23.298;2024-01-10T01:01:23;3.30;;;2.67;;
7181;SDS011;3632;42.724;23.298;2024-01-10T01:03:49;4.83;;;2.80;;
7181;SDS011;3632;42.724;23.298;2024-01-10T01:06:16;2.80;;;2.60;;
7181;SDS011;3632;42.724;23.298;2024-01-10T01:08:43;6.30;;;2.67;;
7181;SDS011;3632;42.724;23.298;2024-01-10T01:11:10;3.43;;;2.70;;
7181;SDS011;3632;42.724;23.298;2024-01-10T01:13:39;3.83;;;2.43;;
7181;SDS011;3632;42.724;23.298;2024-01-10T01:16:07;3.33;;;2.70;;
7181;SDS011;3632;42.724;23.298;2024-01-10T01:18:34;7.90;;;2.80;;
7181;SDS011;3632;42.724;23.298;2024-01-10T01:21:01;6.47;;;2.77;;
7181;SDS011;3632;42.724;23.298;2024-01-10T01:23:28;3.50;;;2.77;;
7181;SDS011;3632;42.724;23.298;2024-01-10T01:25:54;4.60;;;2.80;;
7181;SDS011;3632;42.724;23.298;2024-01-10T01:28:21;4.10;;;2.80;;
7181;SDS011;3632;42.724;23.298;2024-01-10T01:30:48;3.67;;;2.90;;
7181;SDS011;3632;42.724;23.298;2024-01-10T01:33:16;3.97;;;2.90;;
7181;SDS011;3632;42.724;23.298;2024-01-10T01:35:43;4.13;;;2.60;;
7181;SDS011;3632;42.724;23.298;2024-01-10T01:38:09;4.57;;;2.60;;
7181;SDS011;3632;42.724;23.298;2024-01-10T01:40:36;4.20;;;2.70;;
7181;SDS011;3632;42.724;23.298;2024-01-10T01:43:16;4.30;;;2.63;;
7181;SDS011;3632;42.724;23.298;2024-01-10T01:45:44;3.17;;;2.37;;
7181;SDS011;3632;42.724;23.298;2024-01-10T01:48:11;3.67;;;2.80;;
7181;SDS011;3632;42.724;23.298;2024-01-10T01:50:39;3.00;;;2.67;;
7181;SDS011;3632;42.724;23.298;2024-01-10T01:53:06;3.30;;;2.67;;
7181;SDS011;3632;42.724;23.298;2024-01-10T01:55:34;3.63;;;2.30;;
7181;SDS011;3632;42.724;23.298;2024-01-10T01:58:01;3.60;;;2.37;;
7181;SDS011;3632;42.724;23.298;2024-01-10T02:00:28;3.70;;;2.50;;
7181;SDS011;3632;42.724;23.298;2024-01-10T02:02:56;4.37;;;2.70;;
7181;SDS011;3632;42.724;23.298;2024-01-10T02:05:25;7.73;;;3.97;;
7181;SDS011;3632;42.724;23.298;2024-01-10T02:07:53;4.37;;;3.33;;
7181;SDS011;3632;42.724;23.298;2024-01-10T02:10:21;4.83;;;2.70;;
7181;SDS011;3632;42.724;23.298;2024-01-10T02:12:48;8.70;;;5.80;;
7181;SDS011;3632;42.724;23.298;2024-01-10T02:15:15;5.30;;;3.67;;
7181;SDS011;3632;42.724;23.298;2024-01-10T02:17:42;4.03;;;2.90;;
7181;SDS011;3632;42.724;23.298;2024-01-10T02:20:09;3.30;;;2.53;;
7181;SDS011;3632;42.724;23.298;2024-01-10T02:22:37;5.53;;;3.63;;
7181;SDS011;3632;42.724;23.298;2024-01-10T02:25:05;5.43;;;3.43;;
7181;SDS011;3632;42.724;23.298;2024-01-10T02:27:33;3.13;;;2.53;;
7181;SDS011;3632;42.724;23.298;2024-01-10T02:30:00;3.23;;;2.20;;
7181;SDS011;3632;42.724;23.298;2024-01-10T02:32:29;2.30;;;2.07;;
7181;SDS011;3632;42.724;23.298;2024-01-10T02:34:55;2.57;;;1.90;;
7181;SDS011;3632;42.724;23.298;2024-01-10T02:37:22;3.97;;;2.20;;
7181;SDS011;3632;42.724;23.298;2024-01-10T02:39:49;3.23;;;2.40;;
7181;SDS011;3632;42.724;23.298;2024-01-10T02:42:17;3.60;;;2.60;;
7181;SDS011;3632;42.724;23.298;2024-01-10T02:44:44;8.43;;;6.03;;
7181;SDS011;3632;42.724;23.298;2024-01-10T02:47:11;8.17;;;5.13;;
7181;SDS011;3632;42.724;23.298;2024-01-10T02:49:38;3.60;;;2.63;;
7181;SDS011;3632;42.724;23.298;2024-01-10T02:52:05;4.33;;;3.00;;
7181;SDS011;3632;42.724;23.298;2024-01-10T02:54:32;3.43;;;2.20;;
7181;SDS011;3632;42.724;23.298;2024-01-10T02:56:59;3.00;;;2.50;;
7181;SDS011;3632;42.724;23.298;2024-01-10T02:59:27;3.53;;;2.03;;
7181;SDS011;3632;42.724;23.298;2024-01-10T03:01:54;2.47;;;2.10;;
7181;SDS011;3632;42.724;23.298;2024-01-10T03:04:20;3.20;;;1.87;;
7181;SDS011;3632;42.724;23.298;2024-01-10T03:06:47;2.37;;;1.90;;
7181;SDS011;3632;42.724;23.298;2024-01-10T03:09:14;2.50;;;2.00;;
7181;SDS011;3632;42.724;23.298;2024-01-10T03:11:40;7.67;;;2.30;;
7181;SDS011;3632;42.724;23.298;2024-01-10T03:14:08;3.27;;;2.20;;
7181;SDS011;3632;42.724;23.298;2024-01-10T03:16:37;3.57;;;2.43;;
7181;SDS011;3632;42.724;23.298;2024-01-10T03:19:04;3.20;;;2.13;;
7181;SDS011;3632;42.724;23.298;2024-01-10T03:21:30;4.73;;;2.20;;
7181;SDS011;3632;42.724;23.298;2024-01-10T03:23:58;2.57;;;2.13;;
7181;SDS011;3632;42.724;23.298;2024-01-10T03:26:25;3.43;;;2.03;;
7181;SDS011;3632;42.724;23.298;2024-01-10T03:28:53;2.60;;;2.07;;
7181;SDS011;3632;42.724;23.298;2024-01-10T03:31:20;5.33;;;2.40;;
7181;SDS011;3632;42.724;23.298;2024-01-10T03:33:48;5.27;;;2.30;;
7181;SDS011;3632;42.724;23.298;2024-01-10T03:36:15;3.17;;;2.30;;
7181;SDS011;3632;42.724;23.298;2024-01-10T03:38:43;4.60;;;2.03;;
7181;SDS011;3632;42.724;23.298;2024-01-10T03:41:12;2.40;;;2.00;;
7181;SDS011;3632;42.724;23.298;2024-01-10T03:43:39;4.10;;;2.30;;
7181;SDS011;3632;42.724;23.298;2024-01-10T03:46:07;3.17;;;2.00;;
7181;SDS011;3632;42.724;23.298;2024-01-10T03:48:33;2.50;;;2.10;;
7181;SDS011;3632;42.724;23.298;2024-01-10T03:51:02;3.70;;;2.23;;
7181;SDS011;3632;42.724;23.298;2024-01-10T03:53:29;3.30;;;2.47;;
7181;SDS011;3632;42.724;23.298;2024-01-10T03:55:56;3.53;;;2.40;;
7181;SDS011;3632;42.724;23.298;2024-01-10T03:58:23;3.47;;;2.30;;
7181;SDS011;3632;42.724;23.298;2024-01-10T04:00:50;3.13;;;2.30;;
7181;SDS011;3632;42.724;23.298;2024-01-10T04:03:17;4.37;;;2.80;;
7181;SDS011;3632;42.724;23.298;2024-01-10T04:05:43;3.83;;;2.57;;
7181;SDS011;3632;42.724;23.298;2024-01-10T04:08:12;5.30;;;2.50;;
7181;SDS011;3632;42.724;23.298;2024-01-10T04:10:38;3.00;;;2.27;;
7181;SDS011;3632;42.724;23.298;2024-01-10T04:13:05;4.47;;;2.30;;
7181;SDS011;3632;42.724;23.298;2024-01-10T04:15:32;4.13;;;2.57;;
7181;SDS011;3632;42.724;23.298;2024-01-10T04:17:59;3.73;;;2.47;;
7181;SDS011;3632;42.724;23.298;2024-01-10T04:20:26;2.87;;;2.57;;
7181;SDS011;3632;42.724;23.298;2024-01-10T04:22:53;4.80;;;2.57;;
7181;SDS011;3632;42.724;23.298;2024-01-10T04:25:21;2.90;;;2.50;;
7181;SDS011;3632;42.724;23.298;2024-01-10T04:27:47;3.50;;;2.80;;
7181;SDS011;3632;42.724;23.298;2024-01-10T04:30:15;3.50;;;2.60;;
7181;SDS011;3632;42.724;23.298;2024-01-10T04:32:42;3.03;;;2.63;;
7181;SDS011;3632;42.724;23.298;2024-01-10T04:35:09;3.63;;;2.63;;
7181;SDS011;3632;42.724;23.298;2024-01-10T04:37:36;3.43;;;2.40;;
7181;SDS011;3632;42.724;23.298;2024-01-10T04:40:03;3.23;;;2.43;;
7181;SDS011;3632;42.724;23.298;2024-01-10T04:42:32;3.83;;;2.27;;
7181;SDS011;3632;42.724;23.298;2024-01-10T04:44:58;4.53;;;2.43;;
7181;SDS011;3632;42.724;23.298;2024-01-10T04:47:25;3.37;;;2.70;;
7181;SDS011;3632;42.724;23.298;2024-01-10T04:49:52;4.50;;;2.90;;
7181;SDS011;3632;42.724;23.298;2024-01-10T04:52:18;3.83;;;2.80;;
7181;SDS011;3632;42.724;23.298;2024-01-10T04:54:45;4.67;;;2.33;;
7181;SDS011;3632;42.724;23.298;2024-01-10T04:57:12;3.83;;;2.50;;
7181;SDS011;3632;42.724;23.298;2024-01-10T04:59:40;4.67;;;2.80;;
7181;SDS011;3632;42.724;23.298;2024-01-10T05:02:07;7.40;;;2.80;;
7181;SDS011;3632;42.724;23.298;2024-01-10T05:04:34;6.37;;;3.00;;
7181;SDS011;3632;42.724;23.298;2024-01-10T05:07:00;5.57;;;2.97;;
7181;SDS011;3632;42.724;23.298;2024-01-10T05:09:27;4.77;;;2.90;;
7181;SDS011;3632;42.724;23.298;2024-01-10T05:11:54;5.97;;;3.20;;
7181;SDS011;3632;42.724;23.298;2024-01-10T05:14:21;5.10;;;3.20;;
7181;SDS011;3632;42.724;23.298;2024-01-10T05:16:49;4.17;;;2.63;;
7181;SDS011;3632;42.724;23.298;2024-01-10T05:19:16;4.40;;;2.87;;
7181;SDS011;3632;42.724;23.298;2024-01-10T05:21:43;4.93;;;2.80;;
7181;SDS011;3632;42.724;23.298;2024-01-10T05:24:10;5.07;;;2.80;;
7181;SDS011;3632;42.724;23.298;2024-01-10T05:26:37;4.80;;;2.63;;
7181;SDS011;3632;42.724;23.298;2024-01-10T05:29:04;4.87;;;3.10;;
7181;SDS011;3632;42.724;23.298;2024-01-10T05:31:31;6.17;;;3.70;;
7181;SDS011;3632;42.724;23.298;2024-01-10T05:33:59;5.03;;;3.53;;
7181;SDS011;3632;42.724;23.298;2024-01-10T05:36:25;4.63;;;3.30;;
7181;SDS011;3632;42.724;23.298;2024-01-10T05:38:52;7.23;;;3.57;;
7181;SDS011;3632;42.724;23.298;2024-01-10T05:41:19;5.63;;;3.70;;
7181;SDS011;3632;42.724;23.298;2024-01-10T05:43:46;21.50;;;13.23;;
7181;SDS011;3632;42.724;23.298;2024-01-10T05:46:12;9.53;;;6.20;;
7181;SDS011;3632;42.724;23.298;2024-01-10T05:48:41;4.57;;;3.53;;
7181;SDS011;3632;42.724;23.298;2024-01-10T05:51:09;6.10;;;3.60;;
7181;SDS011;3632;42.724;23.298;2024-01-10T05:53:37;7.30;;;4.60;;
7181;SDS011;3632;42.724;23.298;2024-01-10T05:56:05;8.23;;;4.43;;
7181;SDS011;3632;42.724;23.298;2024-01-10T05:58:32;9.13;;;3.90;;
7181;SDS011;3632;42.724;23.298;2024-01-10T06:00:59;5.97;;;3.53;;
7181;SDS011;3632;42.724;23.298;2024-01-10T06:03:26;5.40;;;3.33;;
7181;SDS011;3632;42.724;23.298;2024-01-10T06:05:53;6.40;;;4.20;;
7181;SDS011;3632;42.724;23.298;2024-01-10T06:08:21;6.00;;;4.00;;
7181;SDS011;3632;42.724;23.298;2024-01-10T06:10:50;6.40;;;3.60;;
7181;SDS011;3632;42.724;23.298;2024-01-10T06:13:17;4.87;;;3.27;;
7181;SDS011;3632;42.724;23.298;2024-01-10T06:15:44;6.13;;;3.90;;
7181;SDS011;3632;42.724;23.298;2024-01-10T06:18:11;5.50;;;3.20;;
7181;SDS011;3632;42.724;23.298;2024-01-10T06:20:38;9.10;;;3.90;;
7181;SDS011;3632;42.724;23.298;2024-01-10T06:23:04;5.63;;;3.70;;
7181;SDS011;3632;42.724;23.298;2024-01-10T06:25:33;7.03;;;3.67;;
7181;SDS011;3632;42.724;23.298;2024-01-10T06:27:59;4.63;;;3.10;;
7181;SDS011;3632;42.724;23.298;2024-01-10T06:30:26;7.40;;;3.60;;
7181;SDS011;3632;42.724;23.298;2024-01-10T06:32:53;7.27;;;3.17;;
7181;SDS011;3632;42.724;23.298;2024-01-10T06:35:20;4.87;;;3.40;;
7181;SDS011;3632;42.724;23.298;2024-01-10T06:37:47;6.27;;;3.10;;
7181;SDS011;3632;42.724;23.298;2024-01-10T06:40:14;5.57;;;3.53;;
7181;SDS011;3632;42.724;23.298;2024-01-10T06:42:42;5.30;;;3.20;;
7181;SDS011;3632;42.724;23.298;2024-01-10T06:45:09;6.17;;;3.20;;
7181;SDS011;3632;42.724;23.298;2024-01-10T06:47:37;5.97;;;3.30;;
7181;SDS011;3632;42.724;23.298;2024-01-10T06:50:04;6.17;;;3.40;;
7181;SDS011;3632;42.724;23.298;2024-01-10T06:52:34;4.93;;;3.30;;
7181;SDS011;3632;42.724;23.298;2024-01-10T06:55:00;6.40;;;3.20;;
7181;SDS011;3632;42.724;23.298;2024-01-10T06:57:29;9.43;;;3.73;;
7181;SDS011;3632;42.724;23.298;2024-01-10T06:59:57;5.97;;;3.57;;
7181;SDS011;3632;42.724;23.298;2024-01-10T07:02:24;6.17;;;3.90;;
7181;SDS011;3632;42.724;23.298;2024-01-10T07:04:50;7.40;;;3.40;;
7181;SDS011;3632;42.724;23.298;2024-01-10T07:07:17;5.43;;;3.30;;
7181;SDS011;3632;42.724;23.298;2024-01-10T07:09:44;10.50;;;3.53;;
7181;SDS011;3632;42.724;23.298;2024-01-10T07:12:10;7.93;;;4.33;;
7181;SDS011;3632;42.724;23.298;2024-01-10T07:14:37;9.37;;;4.00;;
7181;SDS011;3632;42.724;23.298;2024-01-10T07:17:07;6.63;;;3.97;;
7181;SDS011;3632;42.724;23.298;2024-01-10T07:19:34;8.10;;;4.83;;
7181;SDS011;3632;42.724;23.298;2024-01-10T07:22:01;7.80;;;5.00;;
7181;SDS011;3632;42.724;23.298;2024-01-10T07:24:27;10.53;;;5.70;;
7181;SDS011;3632;42.724;23.298;2024-01-10T07:26:54;14.80;;;6.93;;
7181;SDS011;3632;42.724;23.298;2024-01-10T07:29:22;14.13;;;6.70;;
7181;SDS011;3632;42.724;23.298;2024-01-10T07:31:48;13.10;;;6.30;;
7181;SDS011;3632;42.724;23.298;2024-01-10T07:34:19;13.10;;;5.97;;
7181;SDS011;3632;42.724;23.298;2024-01-10T07:36:46;12.10;;;6.73;;
7181;SDS011;3632;42.724;23.298;2024-01-10T07:39:13;9.60;;;6.20;;
7181;SDS011;3632;42.724;23.298;2024-01-10T07:41:43;9.87;;;6.20;;
7181;SDS011;3632;42.724;23.298;2024-01-10T07:44:10;12.87;;;6.50;;
7181;SDS011;3632;42.724;23.298;2024-01-10T07:46:37;16.10;;;8.13;;
7181;SDS011;3632;42.724;23.298;2024-01-10T07:49:04;17.53;;;8.53;;
7181;SDS011;3632;42.724;23.298;2024-01-10T07:51:32;17.37;;;9.03;;
7181;SDS011;3632;42.724;23.298;2024-01-10T07:54:00;18.70;;;9.90;;
7181;SDS011;3632;42.724;23.298;2024-01-10T07:56:27;16.70;;;9.37;;
7181;SDS011;3632;42.724;23.298;2024-01-10T07:58:55;16.57;;;9.23;;
7181;SDS011;3632;42.724;23.298;2024-01-10T08:01:21;17.53;;;8.67;;
7181;SDS011;3632;42.724;23.298;2024-01-10T08:03:48;15.30;;;8.20;;
7181;SDS011;3632;42.724;23.298;2024-01-10T08:06:15;17.40;;;9.33;;
7181;SDS011;3632;42.724;23.298;2024-01-10T08:08:43;16.40;;;9.00;;
7181;SDS011;3632;42.724;23.298;2024-01-10T08:11:10;21.97;;;9.77;;
7181;SDS011;3632;42.724;23.298;2024-01-10T08:13:37;19.93;;;10.07;;
7181;SDS011;3632;42.724;23.298;2024-01-10T08:16:04;16.10;;;8.70;;
7181;SDS011;3632;42.724;23.298;2024-01-10T08:18:33;12.37;;;8.30;;
7181;SDS011;3632;42.724;23.298;2024-01-10T08:21:00;16.13;;;9.47;;
7181;SDS011;3632;42.724;23.298;2024-01-10T08:23:29;14.73;;;8.37;;
7181;SDS011;3632;42.724;23.298;2024-01-10T08:25:57;9.40;;;6.13;;
7181;SDS011;3632;42.724;23.298;2024-01-10T08:28:24;11.60;;;6.20;;
7181;SDS011;3632;42.724;23.298;2024-01-10T08:30:51;16.53;;;7.57;;
7181;SDS011;3632;42.724;23.298;2024-01-10T08:33:19;14.20;;;6.60;;
7181;SDS011;3632;42.724;23.298;2024-01-10T08:35:46;12.30;;;7.23;;
7181;SDS011;3632;42.724;23.298;2024-01-10T08:38:13;9.03;;;5.30;;
7181;SDS011;3632;42.724;23.298;2024-01-10T08:40:39;8.43;;;5.10;;
7181;SDS011;3632;42.724;23.298;2024-01-10T08:43:07;6.27;;;3.73;;
7181;SDS011;3632;42.724;23.298;2024-01-10T08:45:34;7.93;;;4.63;;
7181;SDS011;3632;42.724;23.298;2024-01-10T08:48:01;6.30;;;4.80;;
7181;SDS011;3632;42.724;23.298;2024-01-10T08:50:28;7.57;;;4.53;;
7181;SDS011;3632;42.724;23.298;2024-01-10T08:52:55;8.77;;;4.50;;
7181;SDS011;3632;42.724;23.298;2024-01-10T08:55:21;6.40;;;4.30;;
7181;SDS011;3632;42.724;23.298;2024-01-10T08:57:48;11.90;;;5.43;;
7181;SDS011;3632;42.724;23.298;2024-01-10T09:00:17;6.97;;;4.33;;
7181;SDS011;3632;42.724;23.298;2024-01-10T09:02:43;8.33;;;3.87;;
7181;SDS011;3632;42.724;23.298;2024-01-10T09:05:10;9.00;;;3.50;;
7181;SDS011;3632;42.724;23.298;2024-01-10T09:07:37;7.97;;;3.90;;
7181;SDS011;3632;42.724;23.298;2024-01-10T09:10:04;6.43;;;3.53;;
7181;SDS011;3632;42.724;23.298;2024-01-10T09:12:32;7.30;;;3.00;;
7181;SDS011;3632;42.724;23.298;2024-01-10T09:14:59;4.87;;;3.17;;
7181;SDS011;3632;42.724;23.298;2024-01-10T09:17:27;4.63;;;2.80;;
7181;SDS011;3632;42.724;23.298;2024-01-10T09:19:54;4.47;;;2.60;;
7181;SDS011;3632;42.724;23.298;2024-01-10T09:22:21;3.70;;;2.87;;
7181;SDS011;3632;42.724;23.298;2024-01-10T09:24:48;4.23;;;2.43;;
7181;SDS011;3632;42.724;23.298;2024-01-10T09:27:14;3.23;;;2.67;;
7181;SDS011;3632;42.724;23.298;2024-01-10T09:29:41;7.17;;;3.63;;
7181;SDS011;3632;42.724;23.298;2024-01-10T09:32:08;5.90;;;3.30;;
7181;SDS011;3632;42.724;23.298;2024-01-10T09:34:36;4.53;;;2.90;;
7181;SDS011;3632;42.724;23.298;2024-01-10T09:37:03;4.47;;;3.10;;
7181;SDS011;3632;42.724;23.298;2024-01-10T09:39:30;6.83;;;3.40;;
7181;SDS011;3632;42.724;23.298;2024-01-10T09:41:57;4.50;;;3.43;;
7181;SDS011;3632;42.724;23.298;2024-01-10T09:44:24;5.37;;;3.30;;
7181;SDS011;3632;42.724;23.298;2024-01-10T09:46:51;7.53;;;3.83;;
7181;SDS011;3632;42.724;23.298;2024-01-10T09:49:20;5.87;;;3.60;;
7181;SDS011;3632;42.724;23.298;2024-01-10T09:51:49;7.50;;;4.37;;
7181;SDS011;3632;42.724;23.298;2024-01-10T09:54:16;6.43;;;3.97;;
7181;SDS011;3632;42.724;23.298;2024-01-10T09:56:45;8.70;;;4.70;;
7181;SDS011;3632;42.724;23.298;2024-01-10T09:59:11;7.50;;;4.10;;
7181;SDS011;3632;42.724;23.298;2024-01-10T10:01:38;7.00;;;3.63;;
7181;SDS011;3632;42.724;23.298;2024-01-10T10:04:05;7.53;;;4.00;;
7181;SDS011;3632;42.724;23.298;2024-01-10T10:06:35;7.13;;;3.93;;
7181;SDS011;3632;42.724;23.298;2024-01-10T10:09:04;6.60;;;4.90;;
7181;SDS011;3632;42.724;23.298;2024-01-10T10:11:30;9.03;;;5.97;;
7181;SDS011;3632;42.724;23.298;2024-01-10T10:13:57;9.10;;;5.70;;
7181;SDS011;3632;42.724;23.298;2024-01-10T10:16:40;7.60;;;4.73;;
7181;SDS011;3632;42.724;23.298;2024-01-10T10:19:06;6.20;;;4.40;;
7181;SDS011;3632;42.724;23.298;2024-01-10T10:21:34;7.27;;;4.20;;
7181;SDS011;3632;42.724;23.298;2024-01-10T10:24:01;6.67;;;4.97;;
7181;SDS011;3632;42.724;23.298;2024-01-10T10:26:32;8.07;;;5.87;;
7181;SDS011;3632;42.724;23.298;2024-01-10T10:28:59;6.53;;;4.33;;
7181;SDS011;3632;42.724;23.298;2024-01-10T10:31:26;6.13;;;3.93;;
7181;SDS011;3632;42.724;23.298;2024-01-10T10:33:54;6.93;;;4.30;;
7181;SDS011;3632;42.724;23.298;2024-01-10T10:36:21;9.33;;;4.37;;
7181;SDS011;3632;42.724;23.298;2024-01-10T10:38:48;9.67;;;4.67;;
7181;SDS011;3632;42.724;23.298;2024-01-10T10:41:16;10.70;;;5.00;;
7181;SDS011;3632;42.724;23.298;2024-01-10T10:43:45;12.37;;;5.77;;
7181;SDS011;3632;42.724;23.298;2024-01-10T10:46:12;8.93;;;5.20;;
7181;SDS011;3632;42.724;23.298;2024-01-10T10:48:39;11.03;;;5.30;;
7181;SDS011;3632;42.724;23.298;2024-01-10T10:51:08;8.43;;;5.77;;
7181;SDS011;3632;42.724;23.298;2024-01-10T10:53:36;10.93;;;7.60;;
7181;SDS011;3632;42.724;23.298;2024-01-10T10:56:04;11.03;;;6.17;;
7181;SDS011;3632;42.724;23.298;2024-01-10T10:58:35;10.53;;;6.20;;
7181;SDS011;3632;42.724;23.298;2024-01-10T11:01:05;9.73;;;6.30;;
7181;SDS011;3632;42.724;23.298;2024-01-10T11:03:34;11.63;;;5.87;;
7181;SDS011;3632;42.724;23.298;2024-01-10T11:06:02;7.57;;;5.40;;
7181;SDS011;3632;42.724;23.298;2024-01-10T11:08:30;8.93;;;6.17;;
7181;SDS011;3632;42.724;23.298;2024-01-10T11:11:02;9.47;;;6.37;;
7181;SDS011;3632;42.724;23.298;2024-01-10T11:16:32;7.07;;;5.90;;
7181;SDS011;3632;42.724;23.298;2024-01-10T11:19:38;8.13;;;5.43;;
7181;SDS011;3632;42.724;23.298;2024-01-10T11:22:26;6.97;;;5.60;;
7181;SDS011;3632;42.724;23.298;2024-01-10T11:25:05;9.40;;;6.67;;
7181;SDS011;3632;42.724;23.298;2024-01-10T11:27:32;9.30;;;6.67;;
7181;SDS011;3632;42.724;23.298;2024-01-10T11:30:01;9.47;;;6.70;;
7181;SDS011;3632;42.724;23.298;2024-01-10T11:32:30;9.50;;;6.07;;
7181;SDS011;3632;42.724;23.298;2024-01-10T11:34:58;8.63;;;5.87;;
7181;SDS011;3632;42.724;23.298;2024-01-10T11:37:27;8.80;;;6.00;;
7181;SDS011;3632;42.724;23.298;2024-01-10T11:39:55;13.00;;;6.37;;
7181;SDS011;3632;42.724;23.298;2024-01-10T11:42:22;7.27;;;5.87;;
7181;SDS011;3632;42.724;23.298;2024-01-10T11:44:49;11.63;;;6.40;;
7181;SDS011;3632;42.724;23.298;2024-01-10T11:47:20;7.17;;;5.60;;
7181;SDS011;3632;42.724;23.298;2024-01-10T11:49:54;8.70;;;6.17;;
7181;SDS011;3632;42.724;23.298;2024-01-10T11:52:22;11.70;;;7.83;;
7181;SDS011;3632;42.724;23.298;2024-01-10T11:54:49;11.10;;;7.43;;
7181;SDS011;3632;42.724;23.298;2024-01-10T11:57:20;9.53;;;7.00;;
7181;SDS011;3632;42.724;23.298;2024-01-10T11:59:49;10.77;;;7.17;;
7181;SDS011;3632;42.724;23.298;2024-01-10T12:02:17;10.67;;;7.27;;
7181;SDS011;3632;42.724;23.298;2024-01-10T12:04:45;10.73;;;6.90;;
7181;SDS011;3632;42.724;23.298;2024-01-10T12:07:12;9.43;;;7.00;;
7181;SDS011;3632;42.724;23.298;2024-01-10T12:09:39;8.70;;;6.63;;
7181;SDS011;3632;42.724;23.298;2024-01-10T12:12:07;9.87;;;7.13;;
7181;SDS011;3632;42.724;23.298;2024-01-10T12:14:34;12.63;;;7.50;;
7181;SDS011;3632;42.724;23.298;2024-01-10T12:17:01;10.13;;;6.83;;
7181;SDS011;3632;42.724;23.298;2024-01-10T12:19:31;9.00;;;6.97;;
7181;SDS011;3632;42.724;23.298;2024-01-10T12:21:57;10.30;;;7.03;;
7181;SDS011;3632;42.724;23.298;2024-01-10T12:24:24;13.47;;;7.87;;
7181;SDS011;3632;42.724;23.298;2024-01-10T12:26:55;12.87;;;8.57;;
7181;SDS011;3632;42.724;23.298;2024-01-10T12:29:22;8.23;;;6.23;;
7181;SDS011;3632;42.724;23.298;2024-01-10T12:31:50;8.33;;;6.13;;
7181;SDS011;3632;42.724;23.298;2024-01-10T12:34:17;8.00;;;5.80;;
7181;SDS011;3632;42.724;23.298;2024-01-10T12:36:45;7.47;;;5.30;;
7181;SDS011;3632;42.724;23.298;2024-01-10T12:39:12;9.40;;;5.63;;
7181;SDS011;3632;42.724;23.298;2024-01-10T12:41:40;7.43;;;5.73;;
7181;SDS011;3632;42.724;23.298;2024-01-10T12:44:07;8.00;;;5.23;;
7181;SDS011;3632;42.724;23.298;2024-01-10T12:46:34;8.53;;;6.17;;
7181;SDS011;3632;42.724;23.298;2024-01-10T12:49:01;11.27;;;6.20;;
7181;SDS011;3632;42.724;23.298;2024-01-10T12:51:30;7.33;;;5.90;;
7181;SDS011;3632;42.724;23.298;2024-01-10T12:54:00;6.50;;;5.50;;
7181;SDS011;3632;42.724;23.298;2024-01-10T12:56:27;7.90;;;5.87;;
7181;SDS011;3632;42.724;23.298;2024-01-10T12:58:54;9.73;;;5.70;;
7181;SDS011;3632;42.724;23.298;2024-01-10T13:01:21;7.43;;;6.13;;
7181;SDS011;3632;42.724;23.298;2024-01-10T13:03:48;8.03;;;6.20;;
7181;SDS011;3632;42.724;23.298;2024-01-10T13:06:15;7.70;;;5.77;;
7181;SDS011;3632;42.724;23.298;2024-01-10T13:08:44;10.43;;;6.47;;
7181;SDS011;3632;42.724;23.298;2024-01-10T13:11:12;10.53;;;6.03;;
7181;SDS011;3632;42.724;23.298;2024-01-10T13:13:39;7.60;;;5.87;;
7181;SDS011;3632;42.724;23.298;2024-01-10T13:16:06;9.30;;;6.67;;
7181;SDS011;3632;42.724;23.298;2024-01-10T13:18:35;8.33;;;6.33;;
7181;SDS011;3632;42.724;23.298;2024-01-10T13:21:02;10.27;;;6.80;;
7181;SDS011;3632;42.724;23.298;2024-01-10T13:23:30;11.27;;;6.43;;
7181;SDS011;3632;42.724;23.298;2024-01-10T13:25:57;9.13;;;6.13;;
7181;SDS011;3632;42.724;23.298;2024-01-10T13:28:25;7.77;;;6.00;;
7181;SDS011;3632;42.724;23.298;2024-01-10T13:30:53;8.37;;;6.13;;
7181;SDS011;3632;42.724;23.298;2024-01-10T13:33:21;11.27;;;6.00;;
7181;SDS011;3632;42.724;23.298;2024-01-10T13:35:48;8.63;;;6.13;;
7181;SDS011;3632;42.724;23.298;2024-01-10T13:38:15;8.90;;;5.93;;
7181;SDS011;3632;42.724;23.298;2024-01-10T13:40:42;10.67;;;6.07;;
7181;SDS011;3632;42.724;23.298;2024-01-10T13:43:09;10.23;;;6.33;;
7181;SDS011;3632;42.724;23.298;2024-01-10T13:45:37;10.43;;;7.10;;
7181;SDS011;3632;42.724;23.298;2024-01-10T13:48:05;11.00;;;6.47;;
7181;SDS011;3632;42.724;23.298;2024-01-10T13:50:32;10.50;;;7.33;;
7181;SDS011;3632;42.724;23.298;2024-01-10T13:53:00;12.40;;;8.07;;
7181;SDS011;3632;42.724;23.298;2024-01-10T13:55:28;13.00;;;9.10;;
7181;SDS011;3632;42.724;23.298;2024-01-10T13:57:54;12.70;;;7.83;;
7181;SDS011;3632;42.724;23.298;2024-01-10T14:00:22;11.73;;;7.23;;
7181;SDS011;3632;42.724;23.298;2024-01-10T14:02:50;10.80;;;6.83;;
7181;SDS011;3632;42.724;23.298;2024-01-10T14:05:20;9.57;;;6.40;;
7181;SDS011;3632;42.724;23.298;2024-01-10T14:07:47;9.93;;;6.70;;
7181;SDS011;3632;42.724;23.298;2024-01-10T14:10:13;10.73;;;7.10;;
7181;SDS011;3632;42.724;23.298;2024-01-10T14:12:40;13.73;;;8.00;;
7181;SDS011;3632;42.724;23.298;2024-01-10T14:15:07;10.00;;;7.13;;
7181;SDS011;3632;42.724;23.298;2024-01-10T14:17:35;9.93;;;6.80;;
7181;SDS011;3632;42.724;23.298;2024-01-10T14:20:03;13.63;;;7.77;;
7181;SDS011;3632;42.724;23.298;2024-01-10T14:22:33;12.13;;;7.17;;
7181;SDS011;3632;42.724;23.298;2024-01-10T14:25:00;15.63;;;7.60;;
7181;SDS011;3632;42.724;23.298;2024-01-10T14:27:27;15.60;;;7.77;;
7181;SDS011;3632;42.724;23.298;2024-01-10T14:29:54;11.53;;;7.93;;
7181;SDS011;3632;42.724;23.298;2024-01-10T14:32:21;12.23;;;7.23;;
7181;SDS011;3632;42.724;23.298;2024-01-10T14:34:47;16.30;;;7.30;;
7181;SDS011;3632;42.724;23.298;2024-01-10T14:37:15;14.27;;;7.90;;
7181;SDS011;3632;42.724;23.298;2024-01-10T14:39:42;11.57;;;7.50;;
7181;SDS011;3632;42.724;23.298;2024-01-10T14:42:09;15.83;;;7.17;;
7181;SDS011;3632;42.724;23.298;2024-01-10T14:44:36;10.40;;;6.70;;
7181;SDS011;3632;42.724;23.298;2024-01-10T14:47:03;14.83;;;6.97;;
7181;SDS011;3632;42.724;23.298;2024-01-10T14:49:30;11.17;;;6.77;;
7181;SDS011;3632;42.724;23.298;2024-01-10T14:51:57;12.37;;;6.60;;
7181;SDS011;3632;42.724;23.298;2024-01-10T14:54:25;10.17;;;6.60;;
7181;SDS011;3632;42.724;23.298;2024-01-10T14:56:52;32.10;;;15.83;;
7181;SDS011;3632;42.724;23.298;2024-01-10T14:59:19;37.20;;;18.37;;
7181;SDS011;3632;42.724;23.298;2024-01-10T15:01:46;38.87;;;21.23;;